Time;durP1;ratioP1;P1;durP2;ratioP2;P2;SDS_P1;SDS_P2;PMS_P1;PMS_P2;Temp;Humidity;BMP_temperature;BMP_pressure;BME280_temperature;BME280_humidity;BME280_pressure;Samples;Min_cycle;Max_cycle;Signal;HPM_P1;HPM_P2
2022/03/15 00:01:12;;;;;;;6.07;4.60;;;;;;;;;;5170661;27;20430;-78
2022/03/15 00:03:38;;;;;;;14.68;4.63;;;;;;;;;;5071730;28;20258;-81
2022/03/15 00:06:04;;;;;;;10.77;4.57;;;;;;;;;;5025824;28;20221;-80
2022/03/15 00:08:30;;;;;;;9.07;5.00;;;;;;;;;;5013058;28;20203;-80
2022/03/15 00:10:58;;;;;;;5.63;4.22;;;;;;;;;;4956693;28;20641;-81
2022/03/15 00:13:29;;;;;;;11.73;5.15;;;;;;;;;;4941835;28;20224;-79
2022/03/15 00:17:37;;;;;;;4.32;3.30;;;;;;;;;;5135486;27;20504;-79
2022/03/15 00:20:05;;;;;;;7.20;4.47;;;;;;;;;;5146420;27;20181;-78
2022/03/15 00:22:34;;;;;;;11.85;4.03;;;;;;;;;;5150337;27;20181;-81
2022/03/15 00:25:01;;;;;;;10.60;4.40;;;;;;;;;;5149537;27;20174;-81
2022/03/15 00:27:27;;;;;;;8.63;4.20;;;;;;;;;;5113883;27;20677;-78
2022/03/15 00:29:54;;;;;;;9.13;4.30;;;;;;;;;;5036702;28;20246;-77
2022/03/15 00:32:20;;;;;;;6.57;3.60;;;;;;;;;;5039448;28;20493;-79
2022/03/15 00:34:47;;;;;;;11.27;3.92;;;;;;;;;;5033599;28;20551;-78
2022/03/15 00:37:13;;;;;;;9.13;4.07;;;;;;;;;;4959722;28;23457;-79
2022/03/15 00:41:46;;;;;;;10.57;3.72;;;;;;;;;;5193407;27;20483;-80
2022/03/15 00:44:12;;;;;;;6.97;4.20;;;;;;;;;;5153507;27;20196;-77
2022/03/15 00:46:38;;;;;;;11.27;3.55;;;;;;;;;;5139146;27;20700;-78
2022/03/15 00:49:04;;;;;;;6.23;3.80;;;;;;;;;;5122862;27;20190;-80
2022/03/15 00:51:31;;;;;;;8.27;3.90;;;;;;;;;;5112813;28;20434;-80
2022/03/15 00:53:57;;;;;;;6.43;3.20;;;;;;;;;;5080871;28;20184;-78
2022/03/15 00:56:23;;;;;;;6.30;3.50;;;;;;;;;;5081087;28;20681;-79
2022/03/15 00:58:49;;;;;;;6.05;3.55;;;;;;;;;;5063497;28;20258;-77
2022/03/15 01:01:15;;;;;;;6.47;3.20;;;;;;;;;;5045770;28;20223;-81
2022/03/15 01:06:15;;;;;;;7.45;3.20;;;;;;;;;;5187899;27;20323;-78
2022/03/15 01:08:41;;;;;;;6.50;4.13;;;;;;;;;;5188023;27;20192;-78
2022/03/15 01:11:07;;;;;;;6.30;3.50;;;;;;;;;;5192079;27;20481;-80
2022/03/15 01:13:34;;;;;;;6.13;3.55;;;;;;;;;;5191564;27;20429;-77
2022/03/15 01:16:00;;;;;;;7.10;3.58;;;;;;;;;;5146614;27;20190;-79
2022/03/15 01:18:26;;;;;;;7.30;3.93;;;;;;;;;;5108183;28;20183;-78
2022/03/15 01:20:52;;;;;;;6.72;4.00;;;;;;;;;;5125711;27;20432;-81
2022/03/15 01:23:18;;;;;;;4.70;3.50;;;;;;;;;;5076969;28;20203;-79
2022/03/15 01:25:44;;;;;;;7.63;3.55;;;;;;;;;;5015011;28;20475;-78
2022/03/15 01:29:26;;;;;;;7.90;3.53;;;;;;;;;;5193020;27;20486;-79
2022/03/15 01:31:53;;;;;;;9.18;3.65;;;;;;;;;;5187766;27;20693;-79
2022/03/15 01:34:19;;;;;;;10.93;4.38;;;;;;;;;;5192089;27;20668;-79
2022/03/15 01:36:45;;;;;;;9.55;3.50;;;;;;;;;;5181513;27;20224;-78
2022/03/15 01:39:11;;;;;;;6.30;4.13;;;;;;;;;;5153808;27;20225;-77
2022/03/15 01:41:39;;;;;;;7.10;3.42;;;;;;;;;;5137311;27;20234;-78
2022/03/15 01:44:12;;;;;;;6.35;3.55;;;;;;;;;;5143314;27;20197;-78
2022/03/15 01:46:38;;;;;;;9.70;4.47;;;;;;;;;;5129796;27;20233;-79
2022/03/15 01:49:04;;;;;;;6.55;2.80;;;;;;;;;;5088525;28;20242;-78
2022/03/15 01:54:07;;;;;;;8.32;3.83;;;;;;;;;;5193172;27;20476;-81
2022/03/15 01:56:34;;;;;;;7.97;3.30;;;;;;;;;;5163291;27;20209;-79
2022/03/15 01:59:00;;;;;;;7.72;3.58;;;;;;;;;;5151613;27;20219;-81
2022/03/15 02:01:26;;;;;;;8.82;4.05;;;;;;;;;;5170441;27;20222;-81
2022/03/15 02:03:52;;;;;;;6.28;3.47;;;;;;;;;;5161616;27;20194;-78
2022/03/15 02:06:18;;;;;;;6.57;3.20;;;;;;;;;;5163048;27;20212;-79
2022/03/15 02:08:44;;;;;;;6.25;3.67;;;;;;;;;;5165203;27;20192;-81
2022/03/15 02:11:10;;;;;;;12.90;3.67;;;;;;;;;;5057098;27;20219;-79
2022/03/15 02:13:36;;;;;;;8.70;2.70;;;;;;;;;;4988380;28;20482;-81
2022/03/15 02:18:39;;;;;;;5.85;3.28;;;;;;;;;;5193172;27;20484;-80
2022/03/15 02:21:05;;;;;;;8.27;3.75;;;;;;;;;;5170607;27;20263;-79
2022/03/15 02:23:31;;;;;;;7.23;4.80;;;;;;;;;;5172597;27;20213;-77
2022/03/15 02:25:57;;;;;;;10.70;4.00;;;;;;;;;;5168710;27;20929;-78
2022/03/15 02:28:23;;;;;;;5.63;2.90;;;;;;;;;;5123116;27;20441;-77
2022/03/15 02:30:49;;;;;;;9.03;3.93;;;;;;;;;;5128022;27;20424;-80
2022/03/15 02:33:15;;;;;;;3.40;3.10;;;;;;;;;;5098242;27;20468;-79
2022/03/15 02:35:41;;;;;;;4.25;3.70;;;;;;;;;;5099295;28;20627;-80
2022/03/15 02:38:07;;;;;;;4.28;2.75;;;;;;;;;;5037588;28;20229;-80
2022/03/15 02:40:33;;;;;;;7.40;3.50;;;;;;;;;;4902217;28;20205;-80
2022/03/15 02:43:52;;;;;;;6.18;4.07;;;;;;;;;;5193318;27;20471;-78
2022/03/15 02:46:18;;;;;;;8.23;3.67;;;;;;;;;;5182219;27;20303;-80
2022/03/15 02:48:44;;;;;;;5.68;3.42;;;;;;;;;;5151480;27;20269;-76
2022/03/15 02:51:10;;;;;;;5.80;3.80;;;;;;;;;;5150306;27;20189;-78
2022/03/15 02:53:39;;;;;;;8.75;3.45;;;;;;;;;;5108289;27;20280;-78
2022/03/15 02:56:10;;;;;;;5.05;2.83;;;;;;;;;;5012632;28;20296;-79
2022/03/15 02:58:37;;;;;;;6.65;3.42;;;;;;;;;;4969946;28;20276;-79
2022/03/15 03:01:03;;;;;;;8.45;4.10;;;;;;;;;;4881980;29;20205;-80
2022/03/15 03:06:08;;;;;;;7.97;3.50;;;;;;;;;;5189040;27;20502;-78
2022/03/15 03:08:34;;;;;;;8.65;3.63;;;;;;;;;;5188024;27;20267;-79
2022/03/15 03:11:01;;;;;;;5.63;3.00;;;;;;;;;;5172315;27;20197;-80
2022/03/15 03:13:27;;;;;;;4.80;3.15;;;;;;;;;;5191064;27;20192;-79
2022/03/15 03:15:57;;;;;;;8.25;3.10;;;;;;;;;;5168387;27;20537;-78
2022/03/15 03:18:25;;;;;;;7.93;3.25;;;;;;;;;;5100369;28;20198;-77
2022/03/15 03:20:52;;;;;;;4.43;3.55;;;;;;;;;;5068792;28;20203;-78
2022/03/15 03:23:18;;;;;;;5.78;3.30;;;;;;;;;;5039932;28;20206;-77
2022/03/15 03:28:38;;;;;;;9.07;3.30;;;;;;;;;;5193040;27;20512;-80
2022/03/15 03:31:05;;;;;;;7.55;3.60;;;;;;;;;;5168928;27;20191;-79
2022/03/15 03:33:32;;;;;;;9.45;3.80;;;;;;;;;;5192110;27;20248;-80
2022/03/15 03:35:58;;;;;;;5.38;3.92;;;;;;;;;;5188768;27;20192;-80
2022/03/15 03:38:25;;;;;;;11.55;4.15;;;;;;;;;;5151915;27;20191;-79
2022/03/15 03:40:51;;;;;;;10.02;4.80;;;;;;;;;;5093609;28;20191;-79
2022/03/15 03:43:17;;;;;;;9.40;4.85;;;;;;;;;;5087646;28;20198;-77
2022/03/15 03:45:43;;;;;;;7.97;4.88;;;;;;;;;;5022965;28;20202;-80
2022/03/15 03:48:09;;;;;;;8.07;4.30;;;;;;;;;;4936843;28;20224;-79
2022/03/15 03:53:14;;;;;;;6.22;5.03;;;;;;;;;;5193069;27;20487;-79
2022/03/15 03:55:40;;;;;;;9.73;5.10;;;;;;;;;;5187660;27;20197;-78
2022/03/15 03:58:06;;;;;;;6.67;5.20;;;;;;;;;;5151746;27;20551;-81
2022/03/15 04:00:32;;;;;;;6.80;5.70;;;;;;;;;;5170296;27;20423;-79
2022/03/15 04:03:00;;;;;;;12.70;6.20;;;;;;;;;;5157921;27;20897;-80
2022/03/15 04:05:28;;;;;;;11.23;5.90;;;;;;;;;;5093735;28;20532;-80
2022/03/15 04:07:54;;;;;;;8.82;5.68;;;;;;;;;;5069953;28;20221;-78
2022/03/15 04:10:21;;;;;;;9.43;6.32;;;;;;;;;;5080930;28;20635;-77
2022/03/15 04:12:47;;;;;;;10.30;5.55;;;;;;;;;;5032872;28;20708;-80
2022/03/15 04:17:52;;;;;;;13.13;5.75;;;;;;;;;;5173825;27;20348;-78
2022/03/15 04:20:19;;;;;;;12.32;6.53;;;;;;;;;;5185671;27;20184;-81
2022/03/15 04:22:45;;;;;;;12.10;6.57;;;;;;;;;;5192076;27;20268;-78
2022/03/15 04:25:11;;;;;;;9.82;6.20;;;;;;;;;;5191365;27;20181;-78
2022/03/15 04:27:37;;;;;;;10.13;6.00;;;;;;;;;;5178857;27;20252;-77
2022/03/15 04:30:05;;;;;;;9.75;6.25;;;;;;;;;;5107981;27;20222;-79
2022/03/15 04:32:31;;;;;;;11.30;6.38;;;;;;;;;;5101550;28;20213;-78
2022/03/15 04:34:57;;;;;;;13.60;6.33;;;;;;;;;;5120667;28;20194;-78
2022/03/15 04:37:23;;;;;;;9.83;6.80;;;;;;;;;;5035727;28;20498;-78
2022/03/15 04:42:52;;;;;;;10.63;6.65;;;;;;;;;;5193004;27;20835;-78
2022/03/15 04:45:19;;;;;;;10.32;6.43;;;;;;;;;;5150340;27;20599;-79
2022/03/15 04:47:46;;;;;;;8.65;6.57;;;;;;;;;;5173808;27;20215;-79
2022/03/15 04:50:12;;;;;;;11.38;6.63;;;;;;;;;;5170316;27;20192;-79
2022/03/15 04:52:38;;;;;;;10.23;7.22;;;;;;;;;;5132808;27;20197;-78
2022/03/15 04:55:05;;;;;;;12.05;8.77;;;;;;;;;;5073696;28;20254;-78
2022/03/15 04:57:31;;;;;;;10.23;6.53;;;;;;;;;;5051795;28;20671;-78
2022/03/15 04:59:57;;;;;;;12.88;7.00;;;;;;;;;;5073969;28;20206;-79
2022/03/15 05:02:24;;;;;;;17.00;7.20;;;;;;;;;;5076526;28;20227;-78
2022/03/15 05:04:50;;;;;;;12.25;7.15;;;;;;;;;;5020064;28;20479;-80
2022/03/15 05:08:33;;;;;;;12.93;7.75;;;;;;;;;;5151151;27;20479;-79
2022/03/15 05:11:08;;;;;;;11.82;7.70;;;;;;;;;;5145765;27;20186;-81
2022/03/15 05:13:45;;;;;;;11.25;7.72;;;;;;;;;;5119248;28;20236;-79
2022/03/15 05:16:18;;;;;;;13.27;8.38;;;;;;;;;;5058127;28;20214;-80
2022/03/15 05:18:45;;;;;;;15.55;8.13;;;;;;;;;;5001055;28;20272;-78
2022/03/15 05:21:14;;;;;;;16.85;8.55;;;;;;;;;;4985445;28;20542;-79
2022/03/15 05:23:41;;;;;;;14.40;8.80;;;;;;;;;;4993252;28;20214;-79
2022/03/15 05:26:07;;;;;;;9.48;8.48;;;;;;;;;;4992617;28;20237;-79
2022/03/15 05:28:33;;;;;;;13.50;8.10;;;;;;;;;;4923181;28;20203;-78
2022/03/15 05:33:30;;;;;;;17.73;8.05;;;;;;;;;;5193115;27;20636;-79
2022/03/15 05:35:56;;;;;;;11.82;9.00;;;;;;;;;;5185539;27;20236;-79
2022/03/15 05:38:22;;;;;;;16.65;8.68;;;;;;;;;;5151280;27;20579;-79
2022/03/15 05:40:48;;;;;;;16.00;9.20;;;;;;;;;;5170563;27;20214;-78
2022/03/15 05:43:14;;;;;;;10.25;7.45;;;;;;;;;;5112410;27;20483;-80
2022/03/15 05:45:40;;;;;;;14.82;8.20;;;;;;;;;;5096766;28;20713;-78
2022/03/15 05:48:07;;;;;;;16.30;8.55;;;;;;;;;;5108483;28;20215;-78
2022/03/15 05:50:33;;;;;;;14.55;7.85;;;;;;;;;;5105577;28;20202;-79
2022/03/15 05:53:08;;;;;;;10.82;7.28;;;;;;;;;;5044399;28;20249;-80
2022/03/15 05:58:10;;;;;;;15.63;9.00;;;;;;;;;;5193036;27;20306;-80
2022/03/15 06:00:37;;;;;;;13.30;8.20;;;;;;;;;;5170800;27;20193;-78
2022/03/15 06:03:03;;;;;;;14.65;7.47;;;;;;;;;;5191890;27;20430;-77
2022/03/15 06:05:30;;;;;;;18.30;7.93;;;;;;;;;;5190871;27;20267;-79
2022/03/15 06:07:56;;;;;;;11.50;7.22;;;;;;;;;;5125046;27;20262;-79
2022/03/15 06:10:23;;;;;;;14.60;7.27;;;;;;;;;;5053886;28;20276;-78
2022/03/15 06:12:50;;;;;;;16.30;7.93;;;;;;;;;;5072100;28;20934;-77
2022/03/15 06:15:17;;;;;;;13.55;7.70;;;;;;;;;;5054307;28;20202;-78
2022/03/15 06:17:46;;;;;;;20.50;8.07;;;;;;;;;;4995104;28;20229;-80
2022/03/15 06:22:45;;;;;;;13.98;7.22;;;;;;;;;;5192959;27;20298;-78
2022/03/15 06:25:11;;;;;;;15.60;9.20;;;;;;;;;;5187311;27;20192;-79
2022/03/15 06:27:37;;;;;;;13.98;8.18;;;;;;;;;;5174236;27;20213;-78
2022/03/15 06:30:04;;;;;;;11.75;6.82;;;;;;;;;;5170515;27;20186;-79
2022/03/15 06:32:31;;;;;;;10.95;7.20;;;;;;;;;;5095915;28;20193;-79
2022/03/15 06:34:58;;;;;;;14.23;7.03;;;;;;;;;;5088015;28;20587;-79
2022/03/15 06:37:24;;;;;;;18.77;6.70;;;;;;;;;;5106664;28;20207;-78
2022/03/15 06:39:50;;;;;;;13.50;7.65;;;;;;;;;;5091062;28;20215;-79
2022/03/15 06:42:17;;;;;;;16.70;7.72;;;;;;;;;;5026856;28;20223;-78
2022/03/15 06:47:29;;;;;;;12.07;7.28;;;;;;;;;;5167481;27;20505;-77
2022/03/15 06:49:55;;;;;;;7.90;6.47;;;;;;;;;;5187812;27;20597;-77
2022/03/15 06:52:21;;;;;;;16.03;6.50;;;;;;;;;;5192333;27;20188;-78
2022/03/15 06:54:47;;;;;;;10.90;5.90;;;;;;;;;;5191348;27;20466;-79
2022/03/15 06:57:14;;;;;;;11.75;5.80;;;;;;;;;;5139212;27;20224;-79
2022/03/15 06:59:40;;;;;;;12.98;6.65;;;;;;;;;;5117915;28;20235;-79
2022/03/15 07:02:06;;;;;;;16.33;6.10;;;;;;;;;;5046180;28;20544;-80
2022/03/15 07:04:32;;;;;;;11.68;5.97;;;;;;;;;;4992624;28;20231;-79
2022/03/15 07:06:58;;;;;;;9.30;6.30;;;;;;;;;;4907914;29;20264;-80
2022/03/15 07:12:04;;;;;;;10.48;5.85;;;;;;;;;;5192835;27;20485;-78
2022/03/15 07:14:30;;;;;;;11.70;6.50;;;;;;;;;;5187888;27;20208;-77
2022/03/15 07:16:56;;;;;;;9.25;5.97;;;;;;;;;;5180912;27;20209;-78
2022/03/15 07:19:22;;;;;;;15.07;6.35;;;;;;;;;;5170549;27;20185;-77
2022/03/15 07:21:48;;;;;;;12.38;6.10;;;;;;;;;;5097845;27;20530;-79
2022/03/15 07:24:14;;;;;;;10.60;6.20;;;;;;;;;;5006871;28;20289;-78
2022/03/15 07:26:40;;;;;;;11.05;5.43;;;;;;;;;;5014130;28;20552;-79
2022/03/15 07:29:06;;;;;;;9.20;6.33;;;;;;;;;;4986344;28;20250;-79
2022/03/15 07:31:32;;;;;;;12.20;6.50;;;;;;;;;;4943446;28;20476;-78
2022/03/15 07:36:49;;;;;;;13.75;6.07;;;;;;;;;;5183208;27;20855;-79
2022/03/15 07:39:15;;;;;;;9.13;7.30;;;;;;;;;;5165022;27;20189;-79
2022/03/15 07:41:43;;;;;;;9.57;5.63;;;;;;;;;;5156905;27;20298;-79
2022/03/15 07:44:09;;;;;;;9.50;6.07;;;;;;;;;;5191437;27;20184;-78
2022/03/15 07:49:11;;;;;;;6.68;4.88;;;;;;;;;;5421573;22;20742;-79
2022/03/15 07:51:37;;;;;;;6.73;5.50;;;;;;;;;;5084489;28;20339;-80
2022/03/15 07:54:03;;;;;;;7.35;5.45;;;;;;;;;;5040824;28;20425;-80
2022/03/15 07:56:29;;;;;;;8.35;6.22;;;;;;;;;;4932166;28;20229;-78
2022/03/15 08:01:44;;;;;;;7.90;5.25;;;;;;;;;;5192880;27;20818;-80
2022/03/15 08:04:10;;;;;;;13.17;5.67;;;;;;;;;;5170803;27;20196;-78
2022/03/15 08:06:36;;;;;;;7.30;5.53;;;;;;;;;;5184080;27;20518;-78
2022/03/15 08:09:05;;;;;;;9.30;5.70;;;;;;;;;;5151920;27;20430;-79
2022/03/15 08:11:32;;;;;;;7.80;5.10;;;;;;;;;;5123896;27;20437;-79
2022/03/15 08:13:59;;;;;;;7.00;5.10;;;;;;;;;;5051178;28;20195;-78
2022/03/15 08:16:25;;;;;;;7.15;5.38;;;;;;;;;;5076261;28;20211;-78
2022/03/15 08:18:53;;;;;;;11.20;5.82;;;;;;;;;;4977527;28;20666;-77
2022/03/15 08:21:19;;;;;;;13.40;5.47;;;;;;;;;;4933466;28;20220;-78
2022/03/15 08:26:10;;;;;;;12.40;5.50;;;;;;;;;;5167406;27;20297;-79
2022/03/15 08:28:36;;;;;;;12.13;6.35;;;;;;;;;;5143489;27;20190;-79
2022/03/15 08:31:02;;;;;;;12.38;6.60;;;;;;;;;;5159721;27;20181;-78
2022/03/15 08:33:28;;;;;;;8.93;5.70;;;;;;;;;;5189997;27;20597;-80
2022/03/15 08:35:54;;;;;;;11.70;5.10;;;;;;;;;;5144237;27;20273;-80
2022/03/15 08:38:20;;;;;;;12.10;5.65;;;;;;;;;;5093756;28;20275;-77
2022/03/15 08:40:46;;;;;;;9.77;5.50;;;;;;;;;;5090898;28;20715;-79
2022/03/15 08:43:13;;;;;;;9.80;5.80;;;;;;;;;;5074501;28;20805;-77
2022/03/15 08:45:39;;;;;;;15.07;6.57;;;;;;;;;;4993160;28;20595;-77
2022/03/15 08:50:36;;;;;;;9.18;5.10;;;;;;;;;;5192889;27;20702;-79
2022/03/15 08:53:02;;;;;;;12.40;5.93;;;;;;;;;;5153841;27;20196;-80
2022/03/15 08:55:28;;;;;;;10.90;5.63;;;;;;;;;;5174323;27;20182;-79
2022/03/15 08:57:54;;;;;;;12.88;5.82;;;;;;;;;;5145801;27;20478;-79
2022/03/15 09:00:21;;;;;;;18.60;5.43;;;;;;;;;;5121798;27;20246;-78
2022/03/15 09:02:47;;;;;;;9.73;5.97;;;;;;;;;;5081555;28;20426;-79
2022/03/15 09:05:16;;;;;;;13.60;5.83;;;;;;;;;;5080826;28;20542;-79
2022/03/15 09:07:43;;;;;;;8.18;4.60;;;;;;;;;;5035679;28;20456;-79
2022/03/15 09:10:09;;;;;;;9.73;5.38;;;;;;;;;;5013436;28;20293;-79
2022/03/15 09:15:49;;;;;;;10.15;5.25;;;;;;;;;;5191875;27;20476;-78
2022/03/15 09:18:16;;;;;;;6.72;5.05;;;;;;;;;;5187822;27;20215;-77
2022/03/15 09:20:42;;;;;;;4.85;4.28;;;;;;;;;;5192023;27;20229;-78
2022/03/15 09:23:08;;;;;;;8.90;5.40;;;;;;;;;;5191287;27;20267;-77
2022/03/15 09:25:36;;;;;;;12.80;5.80;;;;;;;;;;5182093;27;20273;-78
2022/03/15 09:28:02;;;;;;;11.15;4.90;;;;;;;;;;5157629;27;20488;-78
2022/03/15 09:30:30;;;;;;;8.98;5.45;;;;;;;;;;5166054;27;23215;-78
2022/03/15 09:32:57;;;;;;;10.95;5.47;;;;;;;;;;5163533;27;20284;-78
2022/03/15 09:35:23;;;;;;;11.80;4.85;;;;;;;;;;5129157;27;20217;-78
2022/03/15 09:40:49;;;;;;;8.27;5.20;;;;;;;;;;5192704;27;20500;-79
2022/03/15 09:43:15;;;;;;;10.35;6.05;;;;;;;;;;5169007;27;20209;-80
2022/03/15 09:45:42;;;;;;;7.10;5.60;;;;;;;;;;5172458;27;20291;-79
2022/03/15 09:48:11;;;;;;;12.90;5.47;;;;;;;;;;5165340;27;20216;-79
2022/03/15 09:50:38;;;;;;;13.23;5.75;;;;;;;;;;5138875;27;20187;-79
2022/03/15 09:53:04;;;;;;;11.13;5.57;;;;;;;;;;5089014;28;20279;-79
2022/03/15 09:55:30;;;;;;;8.83;5.20;;;;;;;;;;5037642;28;20292;-79
2022/03/15 09:57:57;;;;;;;10.27;5.10;;;;;;;;;;4896894;28;20896;-79
2022/03/15 10:00:24;;;;;;;14.93;5.60;;;;;;;;;;4910043;29;20637;-79
2022/03/15 10:04:41;;;;;;;10.68;4.22;;;;;;;;;;5192812;27;20481;-76
2022/03/15 10:07:08;;;;;;;6.38;4.57;;;;;;;;;;5166403;27;20304;-76
2022/03/15 10:09:34;;;;;;;8.40;4.90;;;;;;;;;;5151466;27;20446;-77
2022/03/15 10:12:00;;;;;;;13.07;5.70;;;;;;;;;;5170207;27;20535;-77
2022/03/15 10:14:26;;;;;;;10.50;5.25;;;;;;;;;;5156778;27;20238;-77
2022/03/15 10:16:59;;;;;;;9.77;5.23;;;;;;;;;;5152061;27;20210;-79
2022/03/15 10:19:25;;;;;;;11.80;5.45;;;;;;;;;;5099460;28;20422;-79
2022/03/15 10:21:53;;;;;;;8.18;5.47;;;;;;;;;;4985055;28;20208;-78
2022/03/15 10:24:22;;;;;;;8.70;5.57;;;;;;;;;;4860845;28;20228;-77
2022/03/15 10:29:24;;;;;;;9.50;5.80;;;;;;;;;;5192686;27;20469;-79
2022/03/15 10:31:51;;;;;;;9.68;5.43;;;;;;;;;;5187679;27;20233;-78
2022/03/15 10:34:17;;;;;;;9.63;5.75;;;;;;;;;;5192111;27;20279;-78
2022/03/15 10:36:45;;;;;;;11.18;5.53;;;;;;;;;;5181940;27;20201;-79
2022/03/15 10:39:12;;;;;;;6.30;3.90;;;;;;;;;;5155666;27;20716;-79
2022/03/15 10:41:45;;;;;;;8.25;4.18;;;;;;;;;;5098666;28;20416;-79
2022/03/15 10:44:24;;;;;;;9.63;4.80;;;;;;;;;;5039149;28;20200;-79
2022/03/15 10:47:04;;;;;;;6.15;4.53;;;;;;;;;;5032031;28;20224;-78
2022/03/15 10:49:31;;;;;;;8.35;4.53;;;;;;;;;;4952946;28;20204;-78
2022/03/15 10:54:08;;;;;;;11.10;4.72;;;;;;;;;;5192845;27;20466;-77
2022/03/15 10:56:35;;;;;;;6.90;4.85;;;;;;;;;;5180106;27;20234;-79
2022/03/15 10:59:03;;;;;;;8.32;5.30;;;;;;;;;;5170946;27;20716;-78
2022/03/15 11:01:38;;;;;;;9.27;4.90;;;;;;;;;;5170311;27;20290;-80
2022/03/15 11:04:06;;;;;;;8.90;4.90;;;;;;;;;;5158574;27;20273;-80
2022/03/15 11:06:45;;;;;;;8.43;4.80;;;;;;;;;;5140428;27;20611;-80
2022/03/15 11:09:38;;;;;;;10.10;5.40;;;;;;;;;;5122190;27;20232;-80
2022/03/15 11:12:07;;;;;;;8.27;5.22;;;;;;;;;;4893488;28;20267;-79
2022/03/15 11:17:25;;;;;;;10.35;6.25;;;;;;;;;;5178739;27;20533;-79
2022/03/15 11:19:51;;;;;;;10.55;5.85;;;;;;;;;;5165735;27;20201;-80
2022/03/15 11:22:20;;;;;;;8.00;6.13;;;;;;;;;;5171274;27;20292;-76
2022/03/15 11:24:50;;;;;;;8.77;7.10;;;;;;;;;;5178145;27;20500;-80
2022/03/15 11:27:17;;;;;;;11.43;7.90;;;;;;;;;;5167790;27;20202;-79
2022/03/15 11:29:45;;;;;;;9.15;6.45;;;;;;;;;;5113488;27;20232;-79
2022/03/15 11:32:12;;;;;;;12.20;7.00;;;;;;;;;;5157217;27;20534;-79
2022/03/15 11:34:40;;;;;;;9.15;6.60;;;;;;;;;;5162784;27;20189;-78
2022/03/15 11:37:07;;;;;;;15.90;7.18;;;;;;;;;;5083388;27;20588;-78
2022/03/15 11:42:16;;;;;;;10.80;6.97;;;;;;;;;;5193169;27;20492;-78
2022/03/15 11:44:51;;;;;;;9.05;7.28;;;;;;;;;;5169417;27;20189;-78
2022/03/15 11:47:38;;;;;;;14.40;7.00;;;;;;;;;;5156930;27;20205;-77
2022/03/15 11:50:23;;;;;;;8.38;6.70;;;;;;;;;;5124525;27;20270;-77
2022/03/15 11:52:52;;;;;;;13.10;7.28;;;;;;;;;;5078509;28;20189;-77
2022/03/15 11:55:22;;;;;;;11.15;7.20;;;;;;;;;;5074054;28;20280;-80
2022/03/15 11:57:52;;;;;;;9.32;7.40;;;;;;;;;;5066935;28;20699;-79
2022/03/15 12:00:48;;;;;;;10.75;7.38;;;;;;;;;;4954502;28;20240;-79
2022/03/15 12:06:16;;;;;;;14.93;7.72;;;;;;;;;;5147387;27;20506;-80
2022/03/15 12:08:43;;;;;;;9.48;6.70;;;;;;;;;;5126749;27;20216;-79
2022/03/15 12:11:09;;;;;;;10.95;6.97;;;;;;;;;;5150387;27;20249;-79
2022/03/15 12:13:45;;;;;;;8.88;7.50;;;;;;;;;;5149374;27;20190;-78
2022/03/15 12:16:13;;;;;;;11.77;7.60;;;;;;;;;;5086766;28;20201;-78
2022/03/15 12:18:48;;;;;;;13.60;8.38;;;;;;;;;;5024947;28;20647;-79
2022/03/15 12:21:15;;;;;;;9.13;6.90;;;;;;;;;;4944450;28;20199;-80
2022/03/15 12:23:42;;;;;;;9.73;6.90;;;;;;;;;;4900902;29;20230;-80
2022/03/15 12:26:19;;;;;;;10.65;7.28;;;;;;;;;;4826259;29;20224;-80
2022/03/15 12:30:52;;;;;;;11.38;7.00;;;;;;;;;;5151001;27;20479;-80
2022/03/15 12:33:25;;;;;;;11.45;7.45;;;;;;;;;;5146142;27;20197;-80
2022/03/15 12:35:58;;;;;;;7.75;7.00;;;;;;;;;;5105562;28;20229;-80
2022/03/15 12:38:32;;;;;;;8.98;6.78;;;;;;;;;;5054253;28;20561;-80
2022/03/15 12:41:00;;;;;;;9.60;7.03;;;;;;;;;;4991571;28;20187;-79
2022/03/15 12:43:26;;;;;;;9.93;7.93;;;;;;;;;;4988682;28;20195;-80
2022/03/15 12:45:52;;;;;;;9.07;7.25;;;;;;;;;;4994231;28;20191;-80
2022/03/15 12:48:28;;;;;;;9.48;7.80;;;;;;;;;;4966269;28;20197;-79
2022/03/15 12:50:57;;;;;;;13.35;7.07;;;;;;;;;;4862088;29;20290;-80
2022/03/15 12:56:00;;;;;;;10.63;6.60;;;;;;;;;;5190664;27;20473;-79
2022/03/15 12:58:28;;;;;;;11.37;7.43;;;;;;;;;;5188137;27;20181;-80
2022/03/15 13:00:55;;;;;;;11.75;7.30;;;;;;;;;;5192755;27;20924;-79
2022/03/15 13:03:22;;;;;;;10.23;7.10;;;;;;;;;;5192137;27;20534;-80
2022/03/15 13:05:50;;;;;;;11.48;7.90;;;;;;;;;;5172369;27;20273;-79
2022/03/15 13:08:17;;;;;;;12.03;6.40;;;;;;;;;;5090282;28;20180;-80
2022/03/15 13:10:44;;;;;;;10.02;7.45;;;;;;;;;;5040389;28;20436;-79
2022/03/15 13:13:27;;;;;;;8.48;6.78;;;;;;;;;;4890675;28;20210;-79
2022/03/15 13:18:26;;;;;;;9.52;7.90;;;;;;;;;;5193974;27;20481;-80
2022/03/15 13:21:01;;;;;;;13.75;6.70;;;;;;;;;;5154646;27;20206;-81
2022/03/15 13:23:28;;;;;;;11.02;7.25;;;;;;;;;;5159479;27;20605;-77
2022/03/15 13:26:04;;;;;;;10.02;8.48;;;;;;;;;;5141356;27;20274;-77
2022/03/15 13:28:31;;;;;;;14.95;7.70;;;;;;;;;;5079967;28;20215;-77
2022/03/15 13:30:59;;;;;;;11.50;7.30;;;;;;;;;;5034616;28;20194;-79
2022/03/15 13:33:34;;;;;;;9.68;8.25;;;;;;;;;;4839656;28;20204;-79
2022/03/15 13:36:05;;;;;;;12.33;8.73;;;;;;;;;;4589662;30;20291;-79
2022/03/15 13:41:08;;;;;;;9.90;7.63;;;;;;;;;;5193502;27;20488;-79
2022/03/15 13:43:34;;;;;;;17.92;10.05;;;;;;;;;;5153856;27;20421;-78
2022/03/15 13:46:04;;;;;;;9.87;8.30;;;;;;;;;;5173743;27;20189;-79
2022/03/15 13:48:32;;;;;;;13.17;7.70;;;;;;;;;;5146565;27;20514;-79
2022/03/15 13:50:59;;;;;;;9.70;7.97;;;;;;;;;;5079439;28;20441;-79
2022/03/15 13:53:26;;;;;;;11.10;8.77;;;;;;;;;;4988091;28;20194;-79
2022/03/15 13:55:54;;;;;;;9.27;7.07;;;;;;;;;;4926992;28;20463;-79
2022/03/15 13:58:26;;;;;;;9.18;7.22;;;;;;;;;;4861537;29;20437;-79
2022/03/15 14:02:35;;;;;;;15.18;10.23;;;;;;;;;;5192962;27;20818;-81
2022/03/15 14:05:03;;;;;;;13.70;9.82;;;;;;;;;;5187956;27;20591;-78
2022/03/15 14:07:29;;;;;;;12.93;9.57;;;;;;;;;;5176401;27;20266;-79
2022/03/15 14:09:59;;;;;;;8.35;7.00;;;;;;;;;;5150550;27;20193;-78
2022/03/15 14:12:29;;;;;;;10.38;8.13;;;;;;;;;;5073023;28;20331;-78
2022/03/15 14:14:55;;;;;;;10.55;8.00;;;;;;;;;;5055727;28;20188;-78
2022/03/15 14:17:34;;;;;;;10.02;9.02;;;;;;;;;;5050124;28;20217;-79
2022/03/15 14:20:00;;;;;;;11.02;8.30;;;;;;;;;;5012608;28;20213;-77
2022/03/15 14:25:04;;;;;;;9.75;8.50;;;;;;;;;;5192620;27;21023;-81
2022/03/15 14:27:30;;;;;;;10.43;9.30;;;;;;;;;;5153940;27;20217;-80
2022/03/15 14:29:58;;;;;;;10.73;9.33;;;;;;;;;;5150963;27;20424;-80
2022/03/15 14:32:24;;;;;;;13.33;8.90;;;;;;;;;;5169535;27;20461;-80
2022/03/15 14:35:04;;;;;;;8.90;7.67;;;;;;;;;;5159303;27;20496;-81
2022/03/15 14:37:31;;;;;;;11.02;8.18;;;;;;;;;;5098577;28;20450;-81
2022/03/15 14:40:09;;;;;;;13.80;9.80;;;;;;;;;;5039064;28;20190;-80
2022/03/15 14:42:35;;;;;;;15.30;10.30;;;;;;;;;;4954218;28;20505;-81
2022/03/15 14:45:05;;;;;;;13.63;11.07;;;;;;;;;;4834797;28;20542;-80
2022/03/15 14:50:05;;;;;;;13.30;11.60;;;;;;;;;;5188722;27;20303;-81
2022/03/15 14:52:31;;;;;;;12.87;10.03;;;;;;;;;;5186363;27;20428;-79
2022/03/15 14:54:58;;;;;;;10.37;9.23;;;;;;;;;;5191638;27;20514;-80
2022/03/15 14:57:25;;;;;;;11.10;9.50;;;;;;;;;;5182749;27;20507;-79
2022/03/15 14:59:51;;;;;;;14.13;8.90;;;;;;;;;;5155141;27;20420;-78
2022/03/15 15:02:19;;;;;;;12.73;11.10;;;;;;;;;;5128087;27;20953;-79
2022/03/15 15:04:46;;;;;;;18.00;11.30;;;;;;;;;;5104161;28;20441;-78
2022/03/15 15:07:14;;;;;;;18.00;10.53;;;;;;;;;;5030521;28;20499;-80
2022/03/15 15:09:40;;;;;;;10.50;9.00;;;;;;;;;;5030777;28;20893;-79
2022/03/15 15:15:15;;;;;;;9.20;7.30;;;;;;;;;;5192687;27;20488;-80
2022/03/15 15:17:43;;;;;;;8.23;7.40;;;;;;;;;;5153984;27;20465;-79
2022/03/15 15:20:11;;;;;;;9.50;7.53;;;;;;;;;;5171036;27;20482;-79
2022/03/15 15:22:38;;;;;;;11.10;7.53;;;;;;;;;;5154791;27;20841;-77
2022/03/15 15:25:04;;;;;;;14.23;7.13;;;;;;;;;;5123633;27;20802;-79
2022/03/15 15:27:30;;;;;;;7.83;5.83;;;;;;;;;;5091862;28;20260;-79
2022/03/15 15:29:56;;;;;;;8.73;5.70;;;;;;;;;;5101794;28;20778;-79
2022/03/15 15:32:22;;;;;;;8.90;4.73;;;;;;;;;;4917939;28;20453;-78
2022/03/15 15:34:50;;;;;;;5.88;4.68;;;;;;;;;;4749864;29;20478;-78
2022/03/15 15:39:55;;;;;;;10.82;5.70;;;;;;;;;;5192914;27;20484;-81
2022/03/15 15:42:22;;;;;;;7.57;6.37;;;;;;;;;;5170807;27;20184;-80
2022/03/15 15:44:52;;;;;;;9.00;5.50;;;;;;;;;;5192196;27;20425;-81
2022/03/15 15:47:22;;;;;;;8.30;5.63;;;;;;;;;;5177138;27;20442;-80
2022/03/15 15:49:50;;;;;;;7.47;5.25;;;;;;;;;;5147761;27;20583;-82
2022/03/15 15:52:16;;;;;;;8.35;4.80;;;;;;;;;;5091734;28;20187;-80
2022/03/15 15:54:44;;;;;;;8.80;5.43;;;;;;;;;;5105493;28;20236;-80
2022/03/15 15:57:17;;;;;;;7.88;4.72;;;;;;;;;;4987660;28;20545;-81
2022/03/15 15:59:44;;;;;;;12.30;4.93;;;;;;;;;;4835240;29;20572;-79
2022/03/15 16:04:43;;;;;;;10.20;5.00;;;;;;;;;;5194038;27;20294;-78
2022/03/15 16:07:24;;;;;;;8.82;5.65;;;;;;;;;;5177021;27;20209;-80
2022/03/15 16:09:50;;;;;;;5.63;4.43;;;;;;;;;;5111565;28;20209;-79
2022/03/15 16:12:17;;;;;;;7.10;4.90;;;;;;;;;;5108517;28;20426;-79
2022/03/15 16:14:43;;;;;;;7.40;5.00;;;;;;;;;;5120614;28;20183;-78
2022/03/15 16:17:09;;;;;;;5.72;4.75;;;;;;;;;;5108277;28;20241;-78
2022/03/15 16:19:36;;;;;;;8.00;5.10;;;;;;;;;;4970588;28;20208;-78